createdAt,value
2022-11-16T00:00:20.122Z,92.25
2022-11-16T00:04:23.315Z,92.62
2022-11-16T00:08:27.242Z,92.58
2022-11-16T00:12:31.842Z,92.64
2022-11-16T00:16:35.511Z,93.08
2022-11-16T00:20:40.271Z,93.11
2022-11-16T00:24:43.462Z,93.00
2022-11-16T00:28:48.473Z,92.87
2022-11-16T00:32:51.527Z,93.14
2022-11-16T00:36:54.560Z,92.99
2022-11-16T00:40:58.131Z,93.07
2022-11-16T00:45:02.543Z,93.03
2022-11-16T00:49:06.571Z,93.57
2022-11-16T00:53:14.662Z,93.31
2022-11-16T00:57:17.750Z,93.46
2022-11-16T01:01:23.538Z,93.40
2022-11-16T01:05:27.511Z,93.76
2022-11-16T01:09:30.578Z,93.52
2022-11-16T01:13:33.763Z,93.62
2022-11-16T01:17:38.841Z,93.91
2022-11-16T01:21:41.893Z,93.73
2022-11-16T01:25:45.136Z,93.81
2022-11-16T01:29:48.585Z,93.94
2022-11-16T01:33:53.348Z,94.41
2022-11-16T01:38:00.415Z,94.23
2022-11-16T01:42:04.774Z,94.26
2022-11-16T01:46:07.900Z,94.18
2022-11-16T01:50:16.644Z,94.65
2022-11-16T01:54:21.677Z,94.41
2022-11-16T01:58:32.783Z,94.51
2022-11-16T02:02:50.860Z,94.58
2022-11-16T02:07:28.591Z,94.70
2022-11-16T02:12:03.885Z,94.72
2022-11-16T02:16:20.018Z,94.69
2022-11-16T02:20:43.680Z,94.77
2022-11-16T02:24:57.799Z,94.96
2022-11-16T02:29:21.443Z,94.99
2022-11-16T02:33:31.253Z,95.20
2022-11-16T02:37:38.861Z,95.05
2022-11-16T02:41:45.299Z,95.27
2022-11-16T02:45:54.606Z,95.05
2022-11-16T02:50:02.766Z,94.82
2022-11-16T02:54:12.657Z,94.70
2022-11-16T02:58:22.431Z,94.51
2022-11-16T03:02:33.865Z,94.42
2022-11-16T03:06:41.627Z,94.25
2022-11-16T03:11:06.150Z,94.45
2022-11-16T03:15:12.824Z,94.69
2022-11-16T03:19:23.061Z,94.77
2022-11-16T03:23:26.392Z,94.79
2022-11-16T03:27:36.164Z,94.70
2022-11-16T03:31:46.919Z,94.44
2022-11-16T03:36:00.767Z,94.66
2022-11-16T03:40:08.756Z,94.40
2022-11-16T03:44:13.823Z,94.12
2022-11-16T03:48:17.018Z,94.35
2022-11-16T03:52:22.066Z,94.59
2022-11-16T03:56:26.660Z,94.84
2022-11-16T04:00:29.782Z,95.13
2022-11-16T04:04:50.323Z,94.72
2022-11-16T04:09:24.527Z,94.61
2022-11-16T04:13:48.202Z,94.76
2022-11-16T04:18:08.660Z,95.06
2022-11-16T04:22:34.657Z,95.12
2022-11-16T04:26:57.181Z,95.35
2022-11-16T04:31:20.702Z,95.49
2022-11-16T04:35:55.970Z,95.09
2022-11-16T04:39:59.531Z,95.15
2022-11-16T04:44:04.332Z,95.35
2022-11-16T04:48:08.169Z,95.67
2022-11-16T04:52:13.014Z,95.39
2022-11-16T04:56:16.533Z,95.61
2022-11-16T05:00:21.463Z,95.44
2022-11-16T05:04:25.913Z,95.02
2022-11-16T05:08:29.639Z,95.21
2022-11-16T05:12:33.513Z,95.21
2022-11-16T05:16:40.956Z,95.14
2022-11-16T05:21:10.216Z,95.06
2022-11-16T05:25:14.600Z,94.68
2022-11-16T05:29:17.908Z,94.71
2022-11-16T05:33:22.588Z,94.91
2022-11-16T05:37:26.937Z,94.85
2022-11-16T05:41:30.295Z,94.92
2022-11-16T05:45:34.767Z,95.33
2022-11-16T05:49:39.647Z,95.15
2022-11-16T05:53:44.181Z,95.37
2022-11-16T05:57:51.066Z,95.20
2022-11-16T06:01:54.252Z,95.54
2022-11-16T06:06:00.042Z,95.31
2022-11-16T06:10:06.272Z,95.87
2022-11-16T06:14:09.845Z,95.46
2022-11-16T06:18:13.335Z,95.79
2022-11-16T06:22:17.966Z,95.76
2022-11-16T06:26:21.092Z,95.59
2022-11-16T06:30:24.368Z,95.50
2022-11-16T06:34:27.937Z,95.17
2022-11-16T06:38:33.543Z,95.12
2022-11-16T06:42:37.009Z,95.22
2022-11-16T06:46:40.109Z,94.82
2022-11-16T06:50:43.788Z,95.11
2022-11-16T06:54:48.251Z,95.34
2022-11-16T06:58:53.563Z,95.66
2022-11-16T07:02:57.794Z,95.93
2022-11-16T07:07:01.355Z,95.77
2022-11-16T07:11:08.129Z,95.92
2022-11-16T07:15:12.018Z,95.80
2022-11-16T07:19:17.860Z,95.86
2022-11-16T07:23:21.068Z,95.65
2022-11-16T07:27:25.670Z,95.46
2022-11-16T07:31:29.478Z,95.35
2022-11-16T07:35:50.990Z,95.60
2022-11-16T07:39:54.512Z,95.61
2022-11-16T07:44:01.137Z,95.70
2022-11-16T07:48:08.150Z,95.80
2022-11-16T07:52:29.980Z,95.90
2022-11-16T07:56:34.822Z,95.10
2022-11-16T08:00:39.294Z,95.40
2022-11-16T08:04:50.228Z,95.47
2022-11-16T08:08:58.592Z,95.74
2022-11-16T08:13:02.586Z,95.76
2022-11-16T08:17:08.400Z,95.51
2022-11-16T08:21:16.746Z,95.92
2022-11-16T08:25:20.705Z,95.19
2022-11-16T08:29:24.168Z,94.74
2022-11-16T08:33:30.192Z,95.18
2022-11-16T08:37:34.683Z,95.12
2022-11-16T08:41:38.997Z,94.99
2022-11-16T08:45:48.592Z,94.72
2022-11-16T08:49:53.451Z,95.27
2022-11-16T08:53:59.167Z,94.96
2022-11-16T08:58:04.441Z,95.33
2022-11-16T09:02:07.831Z,94.92
2022-11-16T09:10:29.599Z,94.75
2022-11-16T09:14:32.626Z,94.91
2022-11-16T09:18:36.715Z,94.70
2022-11-16T09:22:41.946Z,94.70
2022-11-16T09:26:44.968Z,94.45
2022-11-16T09:30:51.173Z,94.51
2022-11-16T09:34:54.406Z,94.52
2022-11-16T09:39:30.187Z,94.35
2022-11-16T09:43:44.163Z,93.76
2022-11-16T09:47:51.422Z,93.79
2022-11-16T09:51:59.589Z,94.20
2022-11-16T09:56:06.324Z,94.22
2022-11-16T10:00:19.593Z,94.18
2022-11-16T10:04:30.668Z,94.18
2022-11-16T10:08:46.069Z,94.10
2022-11-16T10:12:56.740Z,93.98
2022-11-16T10:17:08.122Z,93.67
2022-11-16T10:21:22.878Z,93.69
2022-11-16T10:25:32.202Z,93.65
2022-11-16T10:29:49.825Z,93.59
2022-11-16T10:33:57.919Z,93.49
2022-11-16T10:38:04.009Z,92.99
2022-11-16T10:42:12.757Z,93.47
2022-11-16T10:46:23.183Z,93.35
2022-11-16T10:50:34.165Z,93.17
2022-11-16T10:54:42.855Z,92.92
2022-11-16T10:58:55.363Z,93.50
2022-11-16T11:03:00.003Z,93.08
2022-11-16T11:07:22.908Z,92.54
2022-11-16T11:11:43.230Z,92.29
2022-11-16T11:15:48.042Z,92.07
2022-11-16T11:19:58.855Z,92.25
2022-11-16T11:24:37.374Z,93.10
2022-11-16T11:28:31.834Z,92.67
2022-11-16T11:32:41.483Z,92.69
2022-11-16T11:36:49.009Z,92.57
2022-11-16T11:40:58.764Z,93.36
2022-11-16T11:45:06.915Z,93.18
2022-11-16T11:49:17.589Z,92.78
2022-11-16T11:53:36.659Z,92.95
2022-11-16T11:57:45.122Z,93.01
2022-11-16T12:02:02.481Z,93.09
2022-11-16T12:06:11.132Z,92.81
2022-11-16T12:10:22.957Z,92.58
2022-11-16T12:14:36.371Z,92.99
2022-11-16T12:19:08.770Z,93.02
2022-11-16T12:23:25.326Z,93.07
2022-11-16T12:27:43.550Z,93.54
2022-11-16T12:32:14.855Z,92.82
2022-11-16T12:36:30.150Z,92.52
2022-11-16T12:40:48.897Z,92.60
2022-11-16T12:45:25.358Z,92.95
2022-11-16T12:50:02.665Z,93.16
2022-11-16T12:54:22.479Z,93.07
2022-11-16T12:58:46.941Z,92.39
2022-11-16T13:03:01.539Z,92.81
2022-11-16T13:07:12.009Z,92.96
2022-11-16T13:11:19.474Z,92.72
2022-11-16T13:15:27.098Z,92.63
2022-11-16T13:19:32.320Z,92.12
2022-11-16T13:23:48.706Z,92.15
2022-11-16T13:27:56.703Z,92.19
2022-11-16T13:32:06.829Z,92.03
2022-11-16T13:36:46.621Z,92.03
2022-11-16T13:40:49.657Z,91.90
2022-11-16T13:44:55.045Z,91.86
2022-11-16T13:48:58.147Z,91.41
2022-11-16T13:53:57.542Z,91.41
2022-11-16T13:57:33.247Z,91.06
2022-11-16T14:01:58.624Z,90.92
2022-11-16T14:06:01.606Z,91.07
2022-11-16T14:10:08.121Z,91.42
2022-11-16T14:14:12.883Z,91.42
2022-11-16T14:18:32.878Z,91.55
2022-11-16T14:22:54.046Z,91.69
2022-11-16T14:27:08.169Z,91.30
2022-11-16T14:31:25.097Z,91.05
2022-11-16T14:35:33.904Z,91.00
2022-11-16T14:39:38.812Z,90.90
2022-11-16T14:43:49.688Z,90.92
2022-11-16T14:47:59.477Z,90.09
2022-11-16T14:52:04.561Z,89.25
2022-11-16T14:56:10.637Z,89.19
2022-11-16T15:00:22.157Z,89.13
2022-11-16T15:04:27.118Z,89.44
2022-11-16T15:08:34.547Z,89.72
2022-11-16T15:12:43.155Z,89.79
2022-11-16T15:16:52.679Z,89.94
2022-11-16T15:20:55.718Z,89.75
2022-11-16T15:25:00.847Z,89.84
2022-11-16T15:29:03.859Z,89.53
2022-11-16T15:33:16.381Z,89.49
2022-11-16T15:37:28.232Z,89.47
2022-11-16T15:41:31.641Z,89.45
2022-11-16T15:45:35.479Z,89.77
2022-11-16T15:49:42.481Z,89.51
2022-11-16T15:53:47.313Z,89.49
2022-11-16T15:58:01.961Z,89.19
2022-11-16T16:02:05.720Z,89.24
2022-11-16T16:06:15.594Z,88.99
2022-11-16T16:10:25.777Z,89.29
2022-11-16T16:14:30.571Z,89.42
2022-11-16T16:18:41.582Z,89.11
2022-11-16T16:22:51.374Z,89.36
2022-11-16T16:26:54.649Z,89.34
2022-11-16T16:30:58.444Z,89.07
2022-11-16T16:35:02.797Z,89.07
2022-11-16T16:39:08.522Z,89.21
2022-11-16T16:43:11.535Z,88.71
2022-11-16T16:47:15.468Z,88.80
2022-11-16T16:51:18.879Z,88.81
2022-11-16T16:55:23.314Z,88.78
2022-11-16T16:59:26.464Z,88.95
2022-11-16T17:03:31.565Z,88.83
2022-11-16T17:07:34.810Z,88.87
2022-11-16T17:11:39.397Z,89.13
2022-11-16T17:15:42.374Z,89.10
2022-11-16T17:19:45.410Z,89.14
2022-11-16T17:23:48.878Z,88.50
2022-11-16T17:27:53.265Z,88.91
2022-11-16T17:31:56.270Z,88.67
2022-11-16T17:36:01.489Z,89.00
2022-11-16T17:40:04.832Z,89.02
2022-11-16T17:44:09.764Z,89.32
2022-11-16T17:48:12.984Z,89.38
2022-11-16T17:52:15.983Z,88.88
2022-11-16T17:56:21.147Z,89.31
2022-11-16T18:00:25.544Z,89.19
2022-11-16T18:04:28.545Z,88.75
2022-11-16T18:08:32.388Z,88.73
2022-11-16T18:12:35.703Z,88.54
2022-11-16T18:16:41.116Z,88.74
2022-11-16T18:20:44.613Z,89.07
2022-11-16T18:24:50.725Z,89.21
2022-11-16T18:28:54.285Z,89.08
2022-11-16T18:32:58.642Z,89.22
2022-11-16T18:37:01.723Z,88.66
2022-11-16T18:41:07.598Z,89.15
2022-11-16T18:45:11.415Z,89.10
2022-11-16T18:49:16.572Z,89.11
2022-11-16T18:53:19.559Z,89.10
2022-11-16T18:57:22.593Z,89.06
2022-11-16T19:01:27.707Z,89.21
2022-11-16T19:05:32.210Z,89.20
2022-11-16T19:09:35.605Z,89.41
2022-11-16T19:13:39.406Z,89.50
2022-11-16T19:17:59.627Z,89.35
2022-11-16T19:22:07.150Z,89.48
2022-11-16T19:26:12.846Z,89.44
2022-11-16T19:30:16.249Z,89.52
2022-11-16T19:34:19.619Z,89.27
2022-11-16T19:38:24.093Z,89.42
2022-11-16T19:42:27.721Z,89.49
2022-11-16T19:46:33.147Z,89.71
2022-11-16T19:50:36.945Z,89.82
2022-11-16T19:54:41.957Z,89.94
2022-11-16T19:58:45.554Z,89.68
2022-11-16T20:02:48.962Z,89.77
2022-11-16T20:06:52.339Z,89.87
2022-11-16T20:10:57.108Z,89.50
2022-11-16T20:15:01.582Z,89.59
2022-11-16T20:19:05.919Z,89.64
2022-11-16T20:23:09.166Z,89.54
2022-11-16T20:27:14.019Z,89.52
2022-11-16T20:31:18.974Z,89.31
2022-11-16T20:35:22.226Z,89.26
2022-11-16T20:39:25.741Z,89.07
2022-11-16T20:43:30.461Z,89.25
2022-11-16T20:47:34.262Z,88.91
2022-11-16T20:51:37.438Z,89.12
2022-11-16T20:55:40.953Z,89.05
2022-11-16T20:59:45.874Z,89.28
2022-11-16T21:03:49.085Z,89.22
2022-11-16T21:07:53.296Z,89.20
2022-11-16T21:12:14.066Z,88.83
2022-11-16T21:16:18.448Z,88.64
2022-11-16T21:20:27.592Z,88.67
2022-11-16T21:24:32.230Z,88.98
2022-11-16T21:28:35.973Z,88.84
2022-11-16T21:32:40.356Z,89.11
2022-11-16T21:36:43.421Z,88.89
2022-11-16T21:40:46.675Z,88.91
2022-11-16T21:44:49.794Z,88.65
2022-11-16T21:48:56.638Z,88.91
2022-11-16T21:53:00.646Z,89.08
2022-11-16T21:57:03.686Z,89.23
2022-11-16T22:01:07.370Z,89.46
2022-11-16T22:05:29.432Z,89.59
2022-11-16T22:09:32.530Z,89.67
2022-11-16T22:13:36.214Z,89.53
2022-11-16T22:17:43.621Z,89.94
2022-11-16T22:21:48.083Z,89.86
2022-11-16T22:25:51.510Z,89.70
2022-11-16T22:29:54.628Z,89.65
2022-11-16T22:33:57.662Z,89.34
2022-11-16T22:38:03.460Z,89.35
2022-11-16T22:42:06.750Z,89.70
2022-11-16T22:46:11.915Z,89.54
2022-11-16T22:50:15.090Z,89.77
2022-11-16T22:54:22.196Z,89.84
2022-11-16T22:58:27.678Z,89.30
2022-11-16T23:02:30.915Z,89.71
2022-11-16T23:06:34.042Z,89.79
2022-11-16T23:10:58.414Z,89.62
2022-11-16T23:15:18.653Z,89.64
2022-11-16T23:19:40.540Z,89.48
2022-11-16T23:24:00.745Z,89.69
2022-11-16T23:28:07.880Z,89.87
2022-11-16T23:32:11.245Z,89.79
2022-11-16T23:36:14.651Z,90.09
2022-11-16T23:40:18.359Z,89.72
2022-11-16T23:44:22.775Z,89.85
2022-11-16T23:48:25.868Z,90.11
2022-11-16T23:52:28.879Z,90.21
2022-11-16T23:56:32.161Z,90.23
